createdAt,value
2022-09-05T00:01:52.853Z,10.32
2022-09-05T00:04:31.726Z,9.70
2022-09-05T00:07:09.498Z,10.48
2022-09-05T00:10:08.580Z,10.30
2022-09-05T00:12:44.524Z,12.40
2022-09-05T00:15:27.023Z,13.05
2022-09-05T00:23:17.618Z,12.77
2022-09-05T00:24:26.771Z,13.15
2022-09-05T00:27:26.485Z,14.07
2022-09-05T00:31:45.630Z,13.25
2022-09-05T00:33:18.931Z,13.60
2022-09-05T00:36:02.581Z,12.38
2022-09-05T00:38:36.903Z,13.70
2022-09-05T00:41:11.062Z,14.18
2022-09-05T00:43:45.491Z,12.77
2022-09-05T00:46:22.766Z,13.43
2022-09-05T00:49:00.143Z,13.95
2022-09-05T00:51:38.572Z,14.73
2022-09-05T00:54:40.508Z,15.55
2022-09-05T00:57:31.850Z,12.50
2022-09-05T01:00:18.188Z,14.02
2022-09-05T01:03:16.875Z,12.38
2022-09-05T01:05:59.123Z,14.35
2022-09-05T01:09:07.786Z,13.23
2022-09-05T01:11:52.139Z,13.48
2022-09-05T01:14:39.709Z,13.73
2022-09-05T01:17:37.449Z,12.55
2022-09-05T01:20:34.408Z,13.68
2022-09-05T01:23:32.054Z,12.90
2022-09-05T01:26:29.672Z,12.88
2022-09-05T01:29:16.146Z,12.23
2022-09-05T01:32:03.768Z,11.40
2022-09-05T01:34:47.206Z,11.90
2022-09-05T01:37:26.576Z,12.35
2022-09-05T01:40:21.236Z,12.60
2022-09-05T01:43:04.801Z,10.88
2022-09-05T01:45:51.417Z,10.20
2022-09-05T01:48:35.148Z,12.30
2022-09-05T01:51:28.837Z,13.25
2022-09-05T01:57:06.166Z,12.60
2022-09-05T01:59:49.446Z,13.45
2022-09-05T02:02:34.616Z,13.65
2022-09-05T02:05:47.724Z,14.25
2022-09-05T02:08:35.854Z,15.80
2022-09-05T02:11:09.939Z,15.13
2022-09-05T02:14:01.898Z,16.13
2022-09-05T02:16:38.618Z,15.77
2022-09-05T02:19:19.089Z,15.27
2022-09-05T02:21:58.157Z,14.32
2022-09-05T02:24:37.647Z,13.90
2022-09-05T02:27:43.558Z,12.95
2022-09-05T02:30:17.362Z,13.23
2022-09-05T02:32:58.591Z,12.52
2022-09-05T02:35:36.883Z,11.70
2022-09-05T02:39:16.223Z,12.43
2022-09-05T02:45:09.511Z,12.20
2022-09-05T02:45:09.926Z,12.07
2022-09-05T02:47:02.579Z,14.23
2022-09-05T02:51:06.892Z,11.77
2022-09-05T02:57:29.971Z,12.88
2022-09-05T02:58:04.949Z,15.57
2022-09-05T02:59:10.120Z,15.18
2022-09-05T03:02:05.717Z,14.20
2022-09-05T03:05:05.068Z,12.55
2022-09-05T03:08:08.719Z,13.68
2022-09-05T03:11:07.238Z,14.32
2022-09-05T03:14:10.334Z,18.20
2022-09-05T03:17:07.482Z,14.25
2022-09-05T03:20:13.382Z,14.82
2022-09-05T03:23:14.271Z,14.43
2022-09-05T03:26:17.122Z,15.98
2022-09-05T03:29:29.754Z,16.40
2022-09-05T03:32:27.184Z,13.95
2022-09-05T03:35:38.973Z,16.08
2022-09-05T03:38:47.147Z,14.57
2022-09-05T03:41:40.210Z,15.60
2022-09-05T03:44:44.482Z,16.47
2022-09-05T03:47:48.987Z,16.15
2022-09-05T03:57:20.507Z,18.67
2022-09-05T03:57:26.664Z,17.67
2022-09-05T04:00:14.951Z,14.32
2022-09-05T04:08:11.435Z,15.57
2022-09-05T04:08:16.454Z,15.18
2022-09-05T04:09:00.209Z,15.63
2022-09-05T04:11:37.860Z,15.10
2022-09-05T04:14:13.366Z,15.27
2022-09-05T04:16:52.678Z,15.43
2022-09-05T04:19:35.079Z,13.98
2022-09-05T04:22:19.066Z,14.65
2022-09-05T04:25:00.811Z,14.05
2022-09-05T04:27:39.937Z,14.90
2022-09-05T04:30:38.735Z,15.45
2022-09-05T04:33:35.971Z,12.88
2022-09-05T04:36:21.882Z,11.88
2022-09-05T04:39:11.597Z,12.93
2022-09-05T04:41:49.247Z,14.73
2022-09-05T04:44:26.571Z,14.18
2022-09-05T04:47:00.166Z,15.18
2022-09-05T04:52:32.010Z,14.70
2022-09-05T04:55:10.651Z,13.32
2022-09-05T04:57:48.984Z,13.55
2022-09-05T05:06:00.244Z,14.30
2022-09-05T05:06:17.346Z,11.60
2022-09-05T05:09:21.934Z,12.15
2022-09-05T05:17:25.355Z,12.90
2022-09-05T05:18:02.255Z,14.20
2022-09-05T05:18:10.721Z,12.57
2022-09-05T05:20:52.248Z,13.18
2022-09-05T05:23:32.494Z,12.43
2022-09-05T05:26:07.518Z,12.23
2022-09-05T05:28:51.689Z,12.32
2022-09-05T05:31:25.181Z,14.68
2022-09-05T05:37:07.979Z,16.63
2022-09-05T05:39:46.032Z,17.37
2022-09-05T05:42:27.244Z,16.20
2022-09-05T05:45:06.488Z,14.27
2022-09-05T05:47:47.610Z,12.93
2022-09-05T05:50:38.216Z,11.82
2022-09-05T05:53:53.262Z,13.30
2022-09-05T05:57:10.333Z,12.18
2022-09-05T06:00:08.022Z,12.27
2022-09-05T06:03:26.209Z,11.90
2022-09-05T06:06:29.143Z,12.32
2022-09-05T06:14:51.715Z,12.45
2022-09-05T06:15:01.764Z,11.75
2022-09-05T06:16:19.228Z,11.07
2022-09-05T06:19:26.130Z,9.85
2022-09-05T06:23:07.001Z,10.23
2022-09-05T06:26:25.030Z,9.25
2022-09-05T06:32:07.754Z,10.63
2022-09-05T06:35:19.298Z,10.75
2022-09-05T06:38:02.827Z,9.45
2022-09-05T06:40:40.021Z,8.75
2022-09-05T06:43:28.565Z,7.88
2022-09-05T06:46:54.216Z,7.88
2022-09-05T06:49:30.917Z,8.25
2022-09-05T06:52:38.639Z,7.25
2022-09-05T06:55:50.592Z,8.45
2022-09-05T06:58:53.354Z,7.55
2022-09-05T07:01:59.847Z,8.55
2022-09-05T07:05:24.798Z,7.85
2022-09-05T07:07:30.211Z,7.43
2022-09-05T07:10:21.936Z,6.88
2022-09-05T07:13:06.445Z,6.70
2022-09-05T07:15:54.078Z,6.68
2022-09-05T07:18:34.361Z,6.90
2022-09-05T07:21:17.900Z,6.80
2022-09-05T07:24:09.255Z,6.45
2022-09-05T07:26:54.133Z,6.22
2022-09-05T07:29:33.027Z,6.63
2022-09-05T07:32:06.613Z,6.00
2022-09-05T07:34:38.398Z,5.82
2022-09-05T07:37:15.368Z,5.68
2022-09-05T07:39:52.692Z,7.57
2022-09-05T07:42:28.450Z,6.97
2022-09-05T07:45:08.642Z,5.50
2022-09-05T07:47:42.364Z,5.70
2022-09-05T07:53:16.682Z,6.00
2022-09-05T07:56:54.033Z,6.75
2022-09-05T07:56:56.541Z,6.25
2022-09-05T07:58:55.193Z,6.23
2022-09-05T08:01:30.590Z,5.45
2022-09-05T08:04:07.812Z,5.53
2022-09-05T08:07:46.044Z,5.88
2022-09-05T08:10:08.954Z,5.72
2022-09-05T08:12:28.007Z,4.70
2022-09-05T08:15:10.416Z,4.90
2022-09-05T08:17:59.244Z,6.53
2022-09-05T08:20:38.489Z,5.77
2022-09-05T08:23:30.689Z,6.43
2022-09-05T08:26:06.868Z,7.10
2022-09-05T08:28:49.032Z,10.90
2022-09-05T08:31:25.343Z,12.52
2022-09-05T08:34:03.426Z,9.98
2022-09-05T08:36:40.761Z,11.20
2022-09-05T08:39:13.411Z,11.52
2022-09-05T08:42:05.864Z,9.93
2022-09-05T08:46:40.698Z,7.82
2022-09-05T08:47:45.624Z,8.48
2022-09-05T08:50:32.276Z,7.72
2022-09-05T08:53:28.379Z,7.45
2022-09-05T08:56:18.063Z,6.93
2022-09-05T08:59:28.020Z,7.13
2022-09-05T09:02:14.690Z,7.70
2022-09-05T09:05:14.356Z,8.40
2022-09-05T09:07:59.187Z,7.03
2022-09-05T09:10:33.233Z,6.68
2022-09-05T09:13:28.008Z,8.68
2022-09-05T09:16:07.193Z,8.07
2022-09-05T09:18:48.665Z,8.60
2022-09-05T09:21:33.554Z,9.45
2022-09-05T09:24:16.929Z,8.43
2022-09-05T09:29:27.238Z,7.63
2022-09-05T09:34:56.994Z,7.30
2022-09-05T09:37:59.937Z,7.35
2022-09-05T09:41:14.215Z,9.50
2022-09-05T09:44:09.806Z,9.32
2022-09-05T09:46:46.780Z,8.07
2022-09-05T09:49:39.384Z,8.63
2022-09-05T09:52:42.199Z,8.00
2022-09-05T09:55:47.344Z,8.48
2022-09-05T09:59:01.033Z,9.77
2022-09-05T10:01:40.427Z,10.50
2022-09-05T10:10:34.053Z,9.70
2022-09-05T10:10:54.669Z,9.13
2022-09-05T10:14:52.342Z,8.35
2022-09-05T10:17:55.199Z,8.07
2022-09-05T10:21:17.087Z,7.75
2022-09-05T10:24:22.883Z,6.95
2022-09-05T10:27:34.110Z,6.97
2022-09-05T10:30:40.196Z,7.00
2022-09-05T10:35:13.250Z,5.90
2022-09-05T10:36:26.624Z,5.60
2022-09-05T10:39:13.577Z,4.90
2022-09-05T10:41:50.190Z,4.78
2022-09-05T10:44:31.714Z,5.45
2022-09-05T10:47:15.848Z,5.28
2022-09-05T10:49:47.721Z,5.22
2022-09-05T10:52:23.309Z,4.93
2022-09-05T10:55:14.688Z,4.78
2022-09-05T10:58:01.144Z,3.88
2022-09-05T11:02:22.649Z,5.05
2022-09-05T11:03:55.145Z,4.55
2022-09-05T11:06:39.559Z,4.50
2022-09-05T11:09:16.603Z,4.43
2022-09-05T11:11:50.445Z,4.35
2022-09-05T11:14:36.138Z,4.80
2022-09-05T11:17:13.226Z,4.30
2022-09-05T11:19:50.720Z,3.67
2022-09-05T11:22:24.235Z,3.67
2022-09-05T11:24:58.725Z,4.30
2022-09-05T11:27:35.411Z,4.32
2022-09-05T11:30:08.953Z,5.40
2022-09-05T11:37:41.774Z,3.42
2022-09-05T11:40:10.677Z,4.93
2022-09-05T11:40:33.936Z,5.90
2022-09-05T11:43:08.315Z,6.85
2022-09-05T11:46:13.684Z,8.20
2022-09-05T11:49:16.677Z,12.35
2022-09-05T11:52:27.265Z,6.80
2022-09-05T11:55:40.565Z,7.78
2022-09-05T11:58:44.699Z,14.23
2022-09-05T12:01:43.001Z,12.52
2022-09-05T12:04:41.028Z,11.52
2022-09-05T12:07:38.448Z,12.27
2022-09-05T12:10:46.839Z,12.43
2022-09-05T12:13:41.166Z,13.65
2022-09-05T12:16:41.555Z,11.82
2022-09-05T12:19:27.030Z,11.05
2022-09-05T12:22:23.960Z,6.75
2022-09-05T12:25:45.786Z,8.25
2022-09-05T12:29:26.783Z,7.28
2022-09-05T12:32:36.385Z,10.90
2022-09-05T12:36:05.995Z,15.55
2022-09-05T12:40:43.337Z,17.83
2022-09-05T12:41:34.652Z,16.35
2022-09-05T12:44:34.681Z,14.80
2022-09-05T12:45:58.319Z,11.25
2022-09-05T12:48:43.356Z,12.15
2022-09-05T12:51:46.593Z,13.77
2022-09-05T12:54:24.704Z,17.40
2022-09-05T13:03:13.063Z,15.02
2022-09-05T13:03:28.615Z,17.13
2022-09-05T13:06:02.959Z,17.20
2022-09-05T13:08:44.209Z,16.95
2022-09-05T13:14:50.447Z,17.23
2022-09-05T13:14:56.581Z,13.15
2022-09-05T13:17:02.516Z,12.90
2022-09-05T13:19:47.642Z,9.55
2022-09-05T13:22:21.081Z,8.30
2022-09-05T13:25:01.536Z,8.45
2022-09-05T13:27:34.646Z,8.25
2022-09-05T13:33:28.397Z,7.90
2022-09-05T13:38:00.836Z,7.25
2022-09-05T13:38:07.748Z,6.78
2022-09-05T13:39:04.830Z,7.45
2022-09-05T13:41:39.509Z,7.80
2022-09-05T13:44:25.524Z,7.97
2022-09-05T13:47:07.653Z,9.48
2022-09-05T13:50:05.341Z,9.38
2022-09-05T13:52:43.780Z,9.25
2022-09-05T13:55:25.086Z,8.77
2022-09-05T13:58:01.660Z,8.75
2022-09-05T14:01:08.325Z,8.75
2022-09-05T14:04:13.671Z,8.60
2022-09-05T14:10:15.765Z,8.88
2022-09-05T14:12:56.281Z,9.10
2022-09-05T14:15:43.448Z,9.20
2022-09-05T14:18:22.687Z,10.77
2022-09-05T14:21:10.787Z,9.55
2022-09-05T14:23:53.835Z,11.02
2022-09-05T14:26:34.207Z,10.65
2022-09-05T14:29:15.458Z,10.02
2022-09-05T14:37:50.671Z,10.93
2022-09-05T14:37:55.109Z,9.32
2022-09-05T14:38:14.810Z,8.43
2022-09-05T14:41:18.839Z,8.65
2022-09-05T14:44:25.650Z,5.88
2022-09-05T14:47:32.301Z,5.47
2022-09-05T14:50:34.843Z,6.07
2022-09-05T14:57:16.493Z,5.82
2022-09-05T15:02:43.842Z,6.20
2022-09-05T15:02:58.670Z,6.90
2022-09-05T15:04:55.215Z,6.47
2022-09-05T15:07:28.623Z,5.07
2022-09-05T15:12:18.800Z,5.25
2022-09-05T15:13:25.708Z,4.50
2022-09-05T15:16:02.841Z,4.18
2022-09-05T15:18:40.375Z,5.07
2022-09-05T15:21:33.327Z,4.57
2022-09-05T15:24:17.639Z,4.72
2022-09-05T15:26:54.090Z,3.55
2022-09-05T15:29:27.510Z,3.30
2022-09-05T15:32:16.172Z,3.28
2022-09-05T15:34:49.067Z,3.00
2022-09-05T15:37:30.328Z,4.13
2022-09-05T15:40:23.763Z,3.20
2022-09-05T15:42:57.361Z,2.83
2022-09-05T15:48:26.241Z,2.95
2022-09-05T15:51:02.733Z,2.90
2022-09-05T15:53:37.209Z,3.20
2022-09-05T15:56:25.178Z,2.72
2022-09-05T15:58:58.689Z,2.88
2022-09-05T16:01:58.411Z,4.07
2022-09-05T16:08:05.528Z,3.35
2022-09-05T16:10:45.313Z,3.38
2022-09-05T16:10:57.855Z,3.50
2022-09-05T16:13:17.528Z,3.78
2022-09-05T16:19:40.956Z,3.55
2022-09-05T16:23:18.642Z,2.67
2022-09-05T16:23:28.982Z,2.85
2022-09-05T16:24:46.424Z,3.30
2022-09-05T16:27:43.935Z,2.88
2022-09-05T16:30:28.271Z,2.65
2022-09-05T16:33:05.558Z,3.28
2022-09-05T16:35:41.352Z,3.22
2022-09-05T16:38:33.130Z,2.92
2022-09-05T16:41:24.140Z,3.05
2022-09-05T16:43:58.331Z,2.78
2022-09-05T16:46:39.233Z,3.58
2022-09-05T16:49:16.994Z,2.80
2022-09-05T16:51:50.284Z,3.35
2022-09-05T16:54:32.573Z,2.78
2022-09-05T16:57:12.481Z,3.47
2022-09-05T16:59:48.920Z,3.40
2022-09-05T17:02:30.801Z,3.47
2022-09-05T17:05:14.842Z,4.03
2022-09-05T17:08:04.508Z,3.05
2022-09-05T17:10:38.351Z,3.60
2022-09-05T17:13:16.784Z,3.10
2022-09-05T17:15:55.606Z,4.22
2022-09-05T17:18:32.567Z,3.78
2022-09-05T17:21:08.546Z,3.67
2022-09-05T17:29:24.036Z,3.83
2022-09-05T17:29:25.636Z,3.88
2022-09-05T17:32:56.339Z,4.28
2022-09-05T17:38:35.283Z,4.68
2022-09-05T17:41:27.632Z,4.47
2022-09-05T17:44:10.720Z,4.45
2022-09-05T17:46:58.718Z,4.32
2022-09-05T17:49:50.604Z,5.00
2022-09-05T17:52:25.779Z,4.50
2022-09-05T17:54:58.143Z,4.68
2022-09-05T17:57:45.400Z,5.18
2022-09-05T18:00:52.487Z,4.63
2022-09-05T18:04:11.334Z,4.65
2022-09-05T18:07:00.454Z,5.97
2022-09-05T18:13:31.596Z,5.70
2022-09-05T18:16:14.169Z,5.57
2022-09-05T18:19:28.101Z,4.72
2022-09-05T18:21:56.239Z,5.18
2022-09-05T18:24:40.136Z,4.78
2022-09-05T18:27:36.527Z,7.18
2022-09-05T18:30:40.485Z,6.30
2022-09-05T18:33:53.416Z,5.75
2022-09-05T18:36:34.897Z,5.55
2022-09-05T18:39:47.392Z,5.00
2022-09-05T18:42:33.954Z,6.43
2022-09-05T18:45:28.747Z,5.85
2022-09-05T18:48:10.918Z,4.85
2022-09-05T18:50:47.800Z,4.95
2022-09-05T18:53:26.322Z,5.60
2022-09-05T18:56:12.363Z,5.95
2022-09-05T18:59:13.286Z,5.18
2022-09-05T19:01:55.251Z,5.90
2022-09-05T19:04:40.214Z,5.68
2022-09-05T19:07:14.923Z,6.25
2022-09-05T19:10:33.813Z,6.28
2022-09-05T19:12:59.909Z,6.38
2022-09-05T19:15:40.545Z,6.60
2022-09-05T19:18:26.222Z,6.53
2022-09-05T19:21:21.487Z,6.30
2022-09-05T19:26:34.325Z,6.53
2022-09-05T19:36:47.008Z,6.57
2022-09-05T19:37:08.356Z,7.38
2022-09-05T19:37:23.985Z,6.82
2022-09-05T19:37:59.030Z,6.65
2022-09-05T19:47:05.874Z,7.22
2022-09-05T19:47:30.004Z,7.05
2022-09-05T19:47:56.429Z,7.75
2022-09-05T19:49:17.690Z,8.00
2022-09-05T19:51:49.875Z,7.43
2022-09-05T19:54:29.610Z,7.60
2022-09-05T19:57:03.636Z,6.65
2022-09-05T19:59:38.572Z,7.72
2022-09-05T20:02:20.158Z,7.35
2022-09-05T20:04:56.220Z,7.38
2022-09-05T20:07:29.606Z,6.95
2022-09-05T20:12:34.261Z,7.05
2022-09-05T20:15:23.501Z,6.65
2022-09-05T20:17:55.083Z,6.70
2022-09-05T20:20:32.870Z,6.53
2022-09-05T20:23:06.950Z,6.97
2022-09-05T20:25:47.797Z,7.32
2022-09-05T20:28:22.965Z,6.38
2022-09-05T20:30:56.035Z,7.15
2022-09-05T20:33:32.032Z,6.28
2022-09-05T20:41:35.314Z,6.18
2022-09-05T20:43:24.586Z,6.32
2022-09-05T20:43:27.018Z,7.15
2022-09-05T20:44:52.569Z,6.82
2022-09-05T20:54:06.027Z,6.68
2022-09-05T20:54:17.178Z,7.65
2022-09-05T20:54:21.729Z,8.48
2022-09-05T20:56:23.935Z,8.00
2022-09-05T20:58:59.428Z,7.05
2022-09-05T21:01:32.852Z,7.45
2022-09-05T21:04:06.818Z,7.85
2022-09-05T21:06:41.697Z,6.80
2022-09-05T21:09:25.215Z,7.15
2022-09-05T21:11:59.086Z,6.53
2022-09-05T21:14:32.402Z,7.03
2022-09-05T21:17:15.707Z,7.05
2022-09-05T21:22:28.424Z,6.80
2022-09-05T21:25:41.420Z,6.85
2022-09-05T21:28:32.677Z,6.00
2022-09-05T21:31:16.145Z,6.45
2022-09-05T21:33:48.256Z,6.78
2022-09-05T21:36:28.297Z,7.90
2022-09-05T21:38:58.779Z,6.85
2022-09-05T21:41:31.905Z,7.43
2022-09-05T21:47:41.438Z,7.07
2022-09-05T21:47:43.997Z,6.40
2022-09-05T21:52:20.954Z,6.72
2022-09-05T21:59:15.144Z,6.68
2022-09-05T21:59:26.346Z,6.82
2022-09-05T22:00:38.795Z,6.40
2022-09-05T22:03:18.297Z,6.97
2022-09-05T22:05:50.039Z,6.13
2022-09-05T22:08:20.421Z,6.68
2022-09-05T22:10:52.549Z,6.95
2022-09-05T22:13:30.601Z,7.07
2022-09-05T22:16:05.158Z,6.32
2022-09-05T22:18:36.202Z,7.20
2022-09-05T22:21:31.988Z,6.47
2022-09-05T22:24:03.715Z,7.30
2022-09-05T22:26:40.396Z,7.43
2022-09-05T22:29:31.626Z,7.05
2022-09-05T22:32:01.856Z,7.40
2022-09-05T22:34:32.372Z,6.32
2022-09-05T22:37:02.746Z,7.90
2022-09-05T22:39:37.883Z,7.60
2022-09-05T22:42:10.603Z,7.28
2022-09-05T22:44:44.551Z,8.50
2022-09-05T22:49:44.895Z,7.90
2022-09-05T22:52:15.455Z,8.00
2022-09-05T22:54:45.929Z,7.95
2022-09-05T22:57:16.134Z,10.13
2022-09-05T22:59:49.531Z,9.88
2022-09-05T23:02:20.133Z,10.40
2022-09-05T23:04:50.829Z,11.55
2022-09-05T23:07:21.343Z,11.77
2022-09-05T23:09:51.722Z,12.00
2022-09-05T23:12:22.343Z,10.13
2022-09-05T23:14:55.759Z,8.77
2022-09-05T23:17:26.271Z,9.70
2022-09-05T23:19:56.715Z,8.70
2022-09-05T23:22:27.187Z,9.65
2022-09-05T23:24:57.691Z,9.73
2022-09-05T23:27:28.544Z,8.50
2022-09-05T23:30:02.270Z,8.80
2022-09-05T23:32:32.756Z,9.10
2022-09-05T23:35:03.442Z,9.07
2022-09-05T23:37:33.912Z,9.23
2022-09-05T23:40:04.522Z,9.05
2022-09-05T23:42:35.230Z,9.82
2022-09-05T23:45:09.402Z,9.43
2022-09-05T23:47:40.448Z,9.15
2022-09-05T23:50:12.135Z,10.05
2022-09-05T23:52:43.525Z,9.50
2022-09-05T23:55:16.539Z,12.25
2022-09-05T23:57:47.099Z,9.38
